Řízení letového provozu České republiky
Letiste: LKTB Aktualizace: 19.09.2018 18:31:06  UTC
 METAR LKTB 19.09. 18:30 ...
METAR LKTB 191830Z 06003KT CAVOK 21/15 Q1021 NOSIG RMK REG QNH 1018=
 TAF LKTB 19.09. 17:00 ...
TAF LKTB 191700Z 1918/2100 VRB02KT CAVOK      TEMPO 2002/2006 3000 BR NSC      BECMG 2008/2010 18006KT      BECMG 2018/2020 VRB02KT=